Flight Number: EUR3058 Duration: 11:00
Departure: Paris Charles-de-Gaulle (LFPG) at 08:00 Distance: 4964 Nm
Arrival: Mexico City Int'l Airport (MMMX) at 19:00 Equipment: A340

Weather Information
Paris-Aeroport Charles De Gaulle, France (LFPG) 49-01N 002-32E 109M Nov 19, 2018 - 05:00 PM EST / 2018.11.19 2200 UTC
Wind: from the NE (040 degrees) at 15 MPH (13 KT):0
Visibility: greater than 7 mile(s):0 Temperature: 37 F (3 C) Dew Point: 32 F (0 C) Relative Humidity: 80% Pressure (altimeter): 29.74 in. Hg (1007 hPa)
ob: LFPG 192200Z 04013KT CAVOK 03/00 Q1007 NOSIG cycle: 22
Sunrise: 07:10 Sunset: 16:00 (UTC)

Mexico City / Licenci, Mexico (MMMX) 19-26N 099-06W Nov 19, 2018 - 04:44 PM EST / 2018.11.19 2144 UTC
Wind: from the E (080 degrees) at 5 MPH (4 KT):0
Visibility: 8 mile(s):0
Sky conditions: clear Temperature: 73 F (23 C) Dew Point: 15 F (-9 C) Relative Humidity: 11% Pressure (altimeter): 30.26 in. Hg (1024 hPa)
ob: MMMX 192144Z 08004KT 8SM SKC 23/M09 A3026 NOSIG RMK HZY cycle: 21
Sunrise: 12:49 Sunset: 23:54 (UTC)

TAF:2018/11/19 18:20 TAF MMMX 191613Z 1918/2024 30006KT 6SM HZ SKC TX22/1921Z TN07/2012Z BECMG 1921/1922 35008KT FM200400 04005KT P6SM SKC BECMG 2011/2012 3SM BR HZ FM201700 07006KT 6SM HZ SKC BECMG 2020/2021 04010KT BKN020

This route has never been flown.

Route map